Airfield :
LOGIN :

Register | Disclaimer

   EN    FR    IT 

 










Legend :    VFR   Marginal VFR   IFR   Intensive IFR   Very Intensive IFR
Visi :
Ceiling :
>= 8 km
>= 3000ft
5 to 8 km
1000 to 3000 ft
1500m to 5 km
500 to 1000 ft
800 to 1500m
200 to 500 ft
< 800m
< 200 ft
Symbols :   Thunderstorms  Fog  Heavy snow  Heavy precipitations  Wind > 20 kt
SIGMETs :     Misc.  Thunderstorms  Icing  Turbulence  Mountain Waves  Volcanic Ashes







- Airport Elevation : -15 ft
- IATA code : RTM


EHRD - Rotterdam Zestienhoven

CURRENT METAR :
  • 170755Z AUTO 08006KT 9999 NCD 02/01 Q1030 NOSIG

EXPIRED METARs :
  • 170725Z AUTO 08006KT 9999 NCD 02/01 Q1030 NOSIG
  • 170655Z AUTO 09009KT 9999 NCD 03/00 Q1030 NOSIG
  • 170625Z AUTO 10009KT 060V120 9999 NCD 04/01 Q1029 NOSIG
  • 170555Z AUTO 10006KT 070V130 9999 NCD 04/01 Q1029 NOSIG
  • 170525Z AUTO 10006KT 070V130 9999 NCD 03/01 Q1029 NOSIG

TAF TAF EHRD
Valid from the 17 at 06:00 until the 18 at 12:00 UTC


170513Z 1706/1812 08006KT CAVOK
PROB30 1706/1709 7000
BECMG 1708/1711 09011KT
BECMG 1803/1806 06008KT
No reported NOTAMs for that airfield.



MET'MAP, your aeronautical weather chart ! - Copyright ORBIFLY December 2007 - Disclaimer

ORBIFLY MET'MAP TEAM :

Programming & Development : Alexandra Zaïnal
Concept & Development : Baudouin d'Aumeries
Co-Development & Prog : Marc-Olivier Méhu
Technical & hardware support : Manuel Goepfert

Contact : metmap@orbifly.com




SOURCES & CREDITS :

   NOAA